sensor_id;sensor_type;location;lat;lon;timestamp;temperature;humidity
69503;SHT31;56704;54.242;12.442;2023-05-27T00:00:32;9.86;78.89
69503;SHT31;56704;54.242;12.442;2023-05-27T00:02:59;9.85;79.02
69503;SHT31;56704;54.242;12.442;2023-05-27T00:05:26;9.75;79.24
69503;SHT31;56704;54.242;12.442;2023-05-27T00:07:55;9.62;79.04
69503;SHT31;56704;54.242;12.442;2023-05-27T00:10:22;9.51;79.65
69503;SHT31;56704;54.242;12.442;2023-05-27T00:12:48;9.46;79.31
69503;SHT31;56704;54.242;12.442;2023-05-27T00:15:15;9.39;79.59
69503;SHT31;56704;54.242;12.442;2023-05-27T00:17:42;9.36;79.87
69503;SHT31;56704;54.242;12.442;2023-05-27T00:20:10;9.36;80.53
69503;SHT31;56704;54.242;12.442;2023-05-27T00:22:38;9.32;80.26
69503;SHT31;56704;54.242;12.442;2023-05-27T00:25:07;9.49;80.89
69503;SHT31;56704;54.242;12.442;2023-05-27T00:27:34;9.48;79.82
69503;SHT31;56704;54.242;12.442;2023-05-27T00:30:00;9.48;79.41
69503;SHT31;56704;54.242;12.442;2023-05-27T00:32:28;9.49;79.40
69503;SHT31;56704;54.242;12.442;2023-05-27T00:34:54;9.43;79.29
69503;SHT31;56704;54.242;12.442;2023-05-27T00:37:21;9.43;79.74
69503;SHT31;56704;54.242;12.442;2023-05-27T00:39:47;9.43;79.17
69503;SHT31;56704;54.242;12.442;2023-05-27T00:42:16;9.36;78.96
69503;SHT31;56704;54.242;12.442;2023-05-27T00:44:43;9.42;79.36
69503;SHT31;56704;54.242;12.442;2023-05-27T00:47:09;9.51;79.79
69503;SHT31;56704;54.242;12.442;2023-05-27T00:49:36;9.62;79.64
69503;SHT31;56704;54.242;12.442;2023-05-27T00:52:03;9.56;79.17
69503;SHT31;56704;54.242;12.442;2023-05-27T00:54:30;9.46;79.18
69503;SHT31;56704;54.242;12.442;2023-05-27T00:56:57;9.43;79.05
69503;SHT31;56704;54.242;12.442;2023-05-27T00:59:26;9.39;79.41
69503;SHT31;56704;54.242;12.442;2023-05-27T01:01:52;9.45;79.61
69503;SHT31;56704;54.242;12.442;2023-05-27T01:04:19;9.35;79.59
69503;SHT31;56704;54.242;12.442;2023-05-27T01:06:53;9.31;80.14
69503;SHT31;56704;54.242;12.442;2023-05-27T01:09:25;9.27;79.39
69503;SHT31;56704;54.242;12.442;2023-05-27T01:11:59;9.25;79.58
69503;SHT31;56704;54.242;12.442;2023-05-27T01:14:32;9.22;79.10
69503;SHT31;56704;54.242;12.442;2023-05-27T01:17:01;9.12;79.25
69503;SHT31;56704;54.242;12.442;2023-05-27T01:19:32;9.04;78.96
69503;SHT31;56704;54.242;12.442;2023-05-27T01:22:00;8.94;79.22
69503;SHT31;56704;54.242;12.442;2023-05-27T01:24:29;9.04;80.24
69503;SHT31;56704;54.242;12.442;2023-05-27T01:26:55;9.14;80.34
69503;SHT31;56704;54.242;12.442;2023-05-27T01:29:22;9.18;80.01
69503;SHT31;56704;54.242;12.442;2023-05-27T01:31:56;9.11;79.78
69503;SHT31;56704;54.242;12.442;2023-05-27T01:34:28;9.14;80.38
69503;SHT31;56704;54.242;12.442;2023-05-27T01:37:00;9.15;79.80
69503;SHT31;56704;54.242;12.442;2023-05-27T01:39:29;9.27;79.78
69503;SHT31;56704;54.242;12.442;2023-05-27T01:41:56;9.10;79.82
69503;SHT31;56704;54.242;12.442;2023-05-27T01:44:23;8.88;80.18
69503;SHT31;56704;54.242;12.442;2023-05-27T01:46:50;8.73;80.60
69503;SHT31;56704;54.242;12.442;2023-05-27T01:49:17;8.70;81.06
69503;SHT31;56704;54.242;12.442;2023-05-27T01:51:43;8.67;81.37
69503;SHT31;56704;54.242;12.442;2023-05-27T01:54:10;8.66;81.28
69503;SHT31;56704;54.242;12.442;2023-05-27T01:56:38;8.45;81.65
69503;SHT31;56704;54.242;12.442;2023-05-27T01:59:05;8.35;81.73
69503;SHT31;56704;54.242;12.442;2023-05-27T02:01:32;8.36;82.68
69503;SHT31;56704;54.242;12.442;2023-05-27T02:03:59;8.49;81.25
69503;SHT31;56704;54.242;12.442;2023-05-27T02:06:26;8.60;81.46
69503;SHT31;56704;54.242;12.442;2023-05-27T02:08:53;8.69;81.22
69503;SHT31;56704;54.242;12.442;2023-05-27T02:11:20;8.57;80.84
69503;SHT31;56704;54.242;12.442;2023-05-27T02:13:48;8.63;81.66
69503;SHT31;56704;54.242;12.442;2023-05-27T02:16:14;8.60;80.76
69503;SHT31;56704;54.242;12.442;2023-05-27T02:18:41;8.46;80.99
69503;SHT31;56704;54.242;12.442;2023-05-27T02:21:08;8.29;81.20
69503;SHT31;56704;54.242;12.442;2023-05-27T02:23:35;8.09;82.18
69503;SHT31;56704;54.242;12.442;2023-05-27T02:26:01;8.05;83.81
69503;SHT31;56704;54.242;12.442;2023-05-27T02:28:28;8.06;83.83
69503;SHT31;56704;54.242;12.442;2023-05-27T02:30:56;7.99;83.63
69503;SHT31;56704;54.242;12.442;2023-05-27T02:33:23;8.15;84.24
69503;SHT31;56704;54.242;12.442;2023-05-27T02:35:49;8.24;84.04
69503;SHT31;56704;54.242;12.442;2023-05-27T02:38:16;8.36;83.92
69503;SHT31;56704;54.242;12.442;2023-05-27T02:40:43;8.54;82.66
69503;SHT31;56704;54.242;12.442;2023-05-27T02:43:09;8.60;81.81
69503;SHT31;56704;54.242;12.442;2023-05-27T02:45:36;8.53;80.80
69503;SHT31;56704;54.242;12.442;2023-05-27T02:48:04;8.42;80.70
69503;SHT31;56704;54.242;12.442;2023-05-27T02:50:31;8.46;81.41
69503;SHT31;56704;54.242;12.442;2023-05-27T02:52:57;8.53;81.40
69503;SHT31;56704;54.242;12.442;2023-05-27T02:55:24;8.56;80.51
69503;SHT31;56704;54.242;12.442;2023-05-27T02:57:51;8.39;79.98
69503;SHT31;56704;54.242;12.442;2023-05-27T03:00:17;8.29;79.97
69503;SHT31;56704;54.242;12.442;2023-05-27T03:02:44;8.13;79.67
69503;SHT31;56704;54.242;12.442;2023-05-27T03:05:12;8.11;80.59
69503;SHT31;56704;54.242;12.442;2023-05-27T03:07:40;8.02;81.05
69503;SHT31;56704;54.242;12.442;2023-05-27T03:10:08;8.06;82.00
69503;SHT31;56704;54.242;12.442;2023-05-27T03:12:34;8.25;82.14
69503;SHT31;56704;54.242;12.442;2023-05-27T03:15:01;8.38;81.45
69503;SHT31;56704;54.242;12.442;2023-05-27T03:17:27;8.48;80.97
69503;SHT31;56704;54.242;12.442;2023-05-27T03:19:54;8.39;81.00
69503;SHT31;56704;54.242;12.442;2023-05-27T03:22:22;8.43;80.45
69503;SHT31;56704;54.242;12.442;2023-05-27T03:24:48;8.36;79.88
69503;SHT31;56704;54.242;12.442;2023-05-27T03:27:15;8.32;80.01
69503;SHT31;56704;54.242;12.442;2023-05-27T03:29:41;8.30;80.18
69503;SHT31;56704;54.242;12.442;2023-05-27T03:32:08;8.36;80.12
69503;SHT31;56704;54.242;12.442;2023-05-27T03:34:35;8.49;80.46
69503;SHT31;56704;54.242;12.442;2023-05-27T03:37:01;8.45;80.13
69503;SHT31;56704;54.242;12.442;2023-05-27T03:39:29;8.42;80.16
69503;SHT31;56704;54.242;12.442;2023-05-27T03:41:56;8.42;80.40
69503;SHT31;56704;54.242;12.442;2023-05-27T03:44:22;8.40;80.47
69503;SHT31;56704;54.242;12.442;2023-05-27T03:46:49;8.43;80.27
69503;SHT31;56704;54.242;12.442;2023-05-27T03:49:16;8.30;80.06
69503;SHT31;56704;54.242;12.442;2023-05-27T03:51:42;8.19;80.37
69503;SHT31;56704;54.242;12.442;2023-05-27T03:54:09;8.15;80.79
69503;SHT31;56704;54.242;12.442;2023-05-27T03:56:37;8.03;80.80
69503;SHT31;56704;54.242;12.442;2023-05-27T03:59:04;8.01;80.71
69503;SHT31;56704;54.242;12.442;2023-05-27T04:01:31;7.91;81.16
69503;SHT31;56704;54.242;12.442;2023-05-27T04:03:58;7.87;81.70
69503;SHT31;56704;54.242;12.442;2023-05-27T04:06:25;7.84;82.69
69503;SHT31;56704;54.242;12.442;2023-05-27T04:08:52;7.99;82.86
69503;SHT31;56704;54.242;12.442;2023-05-27T04:11:18;7.99;83.00
69503;SHT31;56704;54.242;12.442;2023-05-27T04:13:47;7.99;82.78
69503;SHT31;56704;54.242;12.442;2023-05-27T04:16:14;8.08;83.03
69503;SHT31;56704;54.242;12.442;2023-05-27T04:18:40;8.13;82.39
69503;SHT31;56704;54.242;12.442;2023-05-27T04:21:07;8.16;82.76
69503;SHT31;56704;54.242;12.442;2023-05-27T04:23:34;8.32;82.82
69503;SHT31;56704;54.242;12.442;2023-05-27T04:26:01;8.39;82.89
69503;SHT31;56704;54.242;12.442;2023-05-27T04:28:28;8.50;82.47
69503;SHT31;56704;54.242;12.442;2023-05-27T04:30:56;8.64;82.54
69503;SHT31;56704;54.242;12.442;2023-05-27T04:33:22;8.69;82.22
69503;SHT31;56704;54.242;12.442;2023-05-27T04:35:49;8.84;82.54
69503;SHT31;56704;54.242;12.442;2023-05-27T04:38:18;8.94;82.62
69503;SHT31;56704;54.242;12.442;2023-05-27T04:40:46;9.08;82.57
69503;SHT31;56704;54.242;12.442;2023-05-27T04:43:18;9.27;82.74
69503;SHT31;56704;54.242;12.442;2023-05-27T04:45:44;9.41;82.45
69503;SHT31;56704;54.242;12.442;2023-05-27T04:48:12;9.42;82.30
69503;SHT31;56704;54.242;12.442;2023-05-27T04:50:39;9.42;82.15
69503;SHT31;56704;54.242;12.442;2023-05-27T04:53:07;9.42;82.47
69503;SHT31;56704;54.242;12.442;2023-05-27T04:55:34;9.58;82.47
69503;SHT31;56704;54.242;12.442;2023-05-27T04:58:01;9.79;82.23
69503;SHT31;56704;54.242;12.442;2023-05-27T05:00:29;9.89;81.95
69503;SHT31;56704;54.242;12.442;2023-05-27T05:03:04;9.93;81.86
69503;SHT31;56704;54.242;12.442;2023-05-27T05:05:34;10.00;81.91
69503;SHT31;56704;54.242;12.442;2023-05-27T05:08:00;10.13;81.82
69503;SHT31;56704;54.242;12.442;2023-05-27T05:10:28;10.18;81.81
69503;SHT31;56704;54.242;12.442;2023-05-27T05:12:55;10.34;82.28
69503;SHT31;56704;54.242;12.442;2023-05-27T05:15:22;10.62;82.44
69503;SHT31;56704;54.242;12.442;2023-05-27T05:17:48;10.73;81.99
69503;SHT31;56704;54.242;12.442;2023-05-27T05:20:15;10.85;81.82
69503;SHT31;56704;54.242;12.442;2023-05-27T05:22:43;10.95;81.66
69503;SHT31;56704;54.242;12.442;2023-05-27T05:25:10;11.10;81.88
69503;SHT31;56704;54.242;12.442;2023-05-27T05:27:36;11.18;81.51
69503;SHT31;56704;54.242;12.442;2023-05-27T05:30:04;11.24;81.39
69503;SHT31;56704;54.242;12.442;2023-05-27T05:32:31;11.34;81.23
69503;SHT31;56704;54.242;12.442;2023-05-27T05:34:58;11.43;81.17
69503;SHT31;56704;54.242;12.442;2023-05-27T05:37:24;11.66;81.09
69503;SHT31;56704;54.242;12.442;2023-05-27T05:39:53;11.75;80.71
69503;SHT31;56704;54.242;12.442;2023-05-27T05:42:20;11.78;79.82
69503;SHT31;56704;54.242;12.442;2023-05-27T05:44:47;11.88;80.13
69503;SHT31;56704;54.242;12.442;2023-05-27T05:47:13;11.92;79.74
69503;SHT31;56704;54.242;12.442;2023-05-27T05:49:40;12.04;79.52
69503;SHT31;56704;54.242;12.442;2023-05-27T05:52:06;12.17;79.53
69503;SHT31;56704;54.242;12.442;2023-05-27T05:54:33;12.26;79.53
69503;SHT31;56704;54.242;12.442;2023-05-27T05:57:01;12.30;79.44
69503;SHT31;56704;54.242;12.442;2023-05-27T05:59:28;12.43;78.82
69503;SHT31;56704;54.242;12.442;2023-05-27T06:01:55;12.57;78.43
69503;SHT31;56704;54.242;12.442;2023-05-27T06:04:21;12.67;77.42
69503;SHT31;56704;54.242;12.442;2023-05-27T06:06:48;12.81;77.07
69503;SHT31;56704;54.242;12.442;2023-05-27T06:09:15;12.93;76.19
69503;SHT31;56704;54.242;12.442;2023-05-27T06:11:42;12.97;75.63
69503;SHT31;56704;54.242;12.442;2023-05-27T06:14:10;13.08;74.96
69503;SHT31;56704;54.242;12.442;2023-05-27T06:16:37;13.17;73.65
69503;SHT31;56704;54.242;12.442;2023-05-27T06:19:05;13.25;72.96
69503;SHT31;56704;54.242;12.442;2023-05-27T06:21:32;13.31;72.20
69503;SHT31;56704;54.242;12.442;2023-05-27T06:23:59;13.32;70.24
69503;SHT31;56704;54.242;12.442;2023-05-27T06:26:25;13.44;71.71
69503;SHT31;56704;54.242;12.442;2023-05-27T06:28:53;13.52;70.71
69503;SHT31;56704;54.242;12.442;2023-05-27T06:31:21;13.57;70.49
69503;SHT31;56704;54.242;12.442;2023-05-27T06:33:47;13.65;70.02
69503;SHT31;56704;54.242;12.442;2023-05-27T06:36:14;13.69;69.77
69503;SHT31;56704;54.242;12.442;2023-05-27T06:38:41;13.73;67.98
69503;SHT31;56704;54.242;12.442;2023-05-27T06:41:07;13.75;68.01
69503;SHT31;56704;54.242;12.442;2023-05-27T06:43:34;13.83;69.09
69503;SHT31;56704;54.242;12.442;2023-05-27T06:46:00;13.98;68.23
69503;SHT31;56704;54.242;12.442;2023-05-27T06:48:29;14.06;68.19
69503;SHT31;56704;54.242;12.442;2023-05-27T06:50:55;14.20;68.87
69503;SHT31;56704;54.242;12.442;2023-05-27T06:53:22;14.30;67.68
69503;SHT31;56704;54.242;12.442;2023-05-27T06:55:48;14.41;67.36
69503;SHT31;56704;54.242;12.442;2023-05-27T06:58:15;14.50;67.29
69503;SHT31;56704;54.242;12.442;2023-05-27T07:00:42;14.64;66.18
69503;SHT31;56704;54.242;12.442;2023-05-27T07:03:08;14.69;65.21
69503;SHT31;56704;54.242;12.442;2023-05-27T07:05:36;14.84;64.93
69503;SHT31;56704;54.242;12.442;2023-05-27T07:08:03;14.89;63.73
69503;SHT31;56704;54.242;12.442;2023-05-27T07:10:30;14.93;62.98
69503;SHT31;56704;54.242;12.442;2023-05-27T07:12:56;14.96;62.84
69503;SHT31;56704;54.242;12.442;2023-05-27T07:15:25;15.05;63.57
69503;SHT31;56704;54.242;12.442;2023-05-27T07:17:52;15.25;63.46
69503;SHT31;56704;54.242;12.442;2023-05-27T07:20:19;15.40;61.58
69503;SHT31;56704;54.242;12.442;2023-05-27T07:22:47;15.70;62.12
69503;SHT31;56704;54.242;12.442;2023-05-27T07:25:13;16.02;60.94
69503;SHT31;56704;54.242;12.442;2023-05-27T07:27:40;16.44;60.32
69503;SHT31;56704;54.242;12.442;2023-05-27T07:30:08;16.81;59.52
69503;SHT31;56704;54.242;12.442;2023-05-27T07:32:34;17.24;57.60
69503;SHT31;56704;54.242;12.442;2023-05-27T07:35:01;17.83;58.90
69503;SHT31;56704;54.242;12.442;2023-05-27T07:37:28;18.20;55.78
69503;SHT31;56704;54.242;12.442;2023-05-27T07:39:56;18.51;53.92
69503;SHT31;56704;54.242;12.442;2023-05-27T07:42:23;18.78;52.97
69503;SHT31;56704;54.242;12.442;2023-05-27T07:44:50;18.88;52.52
69503;SHT31;56704;54.242;12.442;2023-05-27T07:47:16;18.63;52.13
69503;SHT31;56704;54.242;12.442;2023-05-27T07:49:43;18.61;51.78
69503;SHT31;56704;54.242;12.442;2023-05-27T07:52:10;18.95;52.42
69503;SHT31;56704;54.242;12.442;2023-05-27T07:54:36;19.28;51.05
69503;SHT31;56704;54.242;12.442;2023-05-27T07:57:04;19.73;50.25
69503;SHT31;56704;54.242;12.442;2023-05-27T07:59:32;19.20;49.68
69503;SHT31;56704;54.242;12.442;2023-05-27T08:01:59;19.12;49.94
69503;SHT31;56704;54.242;12.442;2023-05-27T08:04:25;19.25;49.55
69503;SHT31;56704;54.242;12.442;2023-05-27T08:06:52;19.67;49.86
69503;SHT31;56704;54.242;12.442;2023-05-27T08:09:19;18.98;48.78
69503;SHT31;56704;54.242;12.442;2023-05-27T08:11:45;18.61;51.49
69503;SHT31;56704;54.242;12.442;2023-05-27T08:14:13;18.67;51.27
69503;SHT31;56704;54.242;12.442;2023-05-27T08:16:41;18.83;50.52
69503;SHT31;56704;54.242;12.442;2023-05-27T08:19:07;18.95;48.93
69503;SHT31;56704;54.242;12.442;2023-05-27T08:21:34;19.11;48.35
69503;SHT31;56704;54.242;12.442;2023-05-27T08:24:01;19.11;50.29
69503;SHT31;56704;54.242;12.442;2023-05-27T08:26:28;19.25;49.60
69503;SHT31;56704;54.242;12.442;2023-05-27T08:28:54;19.33;48.68
69503;SHT31;56704;54.242;12.442;2023-05-27T08:31:22;19.65;48.12
69503;SHT31;56704;54.242;12.442;2023-05-27T08:33:49;19.42;48.12
69503;SHT31;56704;54.242;12.442;2023-05-27T08:36:16;19.36;46.89
69503;SHT31;56704;54.242;12.442;2023-05-27T08:38:44;19.52;47.92
69503;SHT31;56704;54.242;12.442;2023-05-27T08:41:11;19.77;47.24
69503;SHT31;56704;54.242;12.442;2023-05-27T08:43:38;20.08;47.23
69503;SHT31;56704;54.242;12.442;2023-05-27T08:46:05;20.22;47.87
69503;SHT31;56704;54.242;12.442;2023-05-27T08:48:34;19.98;47.08
69503;SHT31;56704;54.242;12.442;2023-05-27T08:51:01;19.76;48.34
69503;SHT31;56704;54.242;12.442;2023-05-27T08:53:28;19.80;48.00
69503;SHT31;56704;54.242;12.442;2023-05-27T08:55:57;19.43;48.37
69503;SHT31;56704;54.242;12.442;2023-05-27T08:58:27;19.30;50.21
69503;SHT31;56704;54.242;12.442;2023-05-27T09:00:54;19.32;49.24
69503;SHT31;56704;54.242;12.442;2023-05-27T09:03:20;19.36;49.22
69503;SHT31;56704;54.242;12.442;2023-05-27T09:05:49;19.29;49.46
69503;SHT31;56704;54.242;12.442;2023-05-27T09:08:16;19.49;48.48
69503;SHT31;56704;54.242;12.442;2023-05-27T09:10:43;19.42;49.11
69503;SHT31;56704;54.242;12.442;2023-05-27T09:13:09;19.33;49.66
69503;SHT31;56704;54.242;12.442;2023-05-27T09:15:36;19.28;49.50
69503;SHT31;56704;54.242;12.442;2023-05-27T09:18:03;19.25;48.19
69503;SHT31;56704;54.242;12.442;2023-05-27T09:20:29;19.43;48.88
69503;SHT31;56704;54.242;12.442;2023-05-27T09:22:58;19.46;47.87
69503;SHT31;56704;54.242;12.442;2023-05-27T09:25:25;19.50;46.20
69503;SHT31;56704;54.242;12.442;2023-05-27T09:27:52;19.43;48.18
69503;SHT31;56704;54.242;12.442;2023-05-27T09:30:19;19.52;47.50
69503;SHT31;56704;54.242;12.442;2023-05-27T09:32:47;19.49;47.94
69503;SHT31;56704;54.242;12.442;2023-05-27T09:35:16;19.39;47.65
69503;SHT31;56704;54.242;12.442;2023-05-27T09:37:43;19.40;47.42
69503;SHT31;56704;54.242;12.442;2023-05-27T09:40:13;19.66;47.33
69503;SHT31;56704;54.242;12.442;2023-05-27T09:42:41;19.60;47.81
69503;SHT31;56704;54.242;12.442;2023-05-27T09:45:11;19.80;47.38
69503;SHT31;56704;54.242;12.442;2023-05-27T09:47:39;19.63;48.57
69503;SHT31;56704;54.242;12.442;2023-05-27T09:50:08;19.65;47.43
69503;SHT31;56704;54.242;12.442;2023-05-27T09:52:37;19.59;47.93
69503;SHT31;56704;54.242;12.442;2023-05-27T09:55:06;19.63;47.90
69503;SHT31;56704;54.242;12.442;2023-05-27T09:57:35;19.29;49.00
69503;SHT31;56704;54.242;12.442;2023-05-27T10:00:04;19.62;49.52
69503;SHT31;56704;54.242;12.442;2023-05-27T10:02:36;19.96;48.23
69503;SHT31;56704;54.242;12.442;2023-05-27T10:05:06;20.04;48.03
69503;SHT31;56704;54.242;12.442;2023-05-27T10:07:36;19.93;47.73
69503;SHT31;56704;54.242;12.442;2023-05-27T10:10:05;19.88;48.97
69503;SHT31;56704;54.242;12.442;2023-05-27T10:12:32;19.96;47.22
69503;SHT31;56704;54.242;12.442;2023-05-27T10:15:00;19.94;47.26
69503;SHT31;56704;54.242;12.442;2023-05-27T10:17:27;20.00;46.64
69503;SHT31;56704;54.242;12.442;2023-05-27T10:19:56;20.17;46.71
69503;SHT31;56704;54.242;12.442;2023-05-27T10:22:23;20.31;46.56
69503;SHT31;56704;54.242;12.442;2023-05-27T10:24:49;20.41;46.10
69503;SHT31;56704;54.242;12.442;2023-05-27T10:27:18;20.51;46.33
69503;SHT31;56704;54.242;12.442;2023-05-27T10:29:56;20.42;45.59
69503;SHT31;56704;54.242;12.442;2023-05-27T10:32:25;20.38;46.12
69503;SHT31;56704;54.242;12.442;2023-05-27T10:34:52;20.22;46.18
69503;SHT31;56704;54.242;12.442;2023-05-27T10:37:21;20.45;45.94
69503;SHT31;56704;54.242;12.442;2023-05-27T10:39:54;20.71;46.15
69503;SHT31;56704;54.242;12.442;2023-05-27T10:42:22;20.62;46.31
69503;SHT31;56704;54.242;12.442;2023-05-27T10:44:49;20.61;46.58
69503;SHT31;56704;54.242;12.442;2023-05-27T10:47:17;20.39;46.08
69503;SHT31;56704;54.242;12.442;2023-05-27T10:49:56;20.42;46.40
69503;SHT31;56704;54.242;12.442;2023-05-27T10:52:24;20.32;46.76
69503;SHT31;56704;54.242;12.442;2023-05-27T10:54:52;20.38;46.45
69503;SHT31;56704;54.242;12.442;2023-05-27T10:57:19;19.94;46.81
69503;SHT31;56704;54.242;12.442;2023-05-27T10:59:48;19.97;46.52
69503;SHT31;56704;54.242;12.442;2023-05-27T11:02:15;20.32;46.33
69503;SHT31;56704;54.242;12.442;2023-05-27T11:04:42;20.27;45.23
69503;SHT31;56704;54.242;12.442;2023-05-27T11:07:12;20.35;46.26
69503;SHT31;56704;54.242;12.442;2023-05-27T11:10:08;20.39;45.50
69503;SHT31;56704;54.242;12.442;2023-05-27T11:12:34;20.51;46.24
69503;SHT31;56704;54.242;12.442;2023-05-27T11:15:03;20.24;46.08
69503;SHT31;56704;54.242;12.442;2023-05-27T11:17:30;20.22;45.87
69503;SHT31;56704;54.242;12.442;2023-05-27T11:19:56;20.38;45.05
69503;SHT31;56704;54.242;12.442;2023-05-27T11:22:25;20.41;45.22
69503;SHT31;56704;54.242;12.442;2023-05-27T11:24:58;20.49;45.36
69503;SHT31;56704;54.242;12.442;2023-05-27T11:27:32;20.56;44.66
69503;SHT31;56704;54.242;12.442;2023-05-27T11:30:06;20.62;43.37
69503;SHT31;56704;54.242;12.442;2023-05-27T11:32:35;20.71;43.80
69503;SHT31;56704;54.242;12.442;2023-05-27T11:35:01;20.73;43.73
69503;SHT31;56704;54.242;12.442;2023-05-27T11:37:33;20.55;44.02
69503;SHT31;56704;54.242;12.442;2023-05-27T11:40:00;20.83;43.44
69503;SHT31;56704;54.242;12.442;2023-05-27T11:42:28;20.75;43.85
69503;SHT31;56704;54.242;12.442;2023-05-27T11:44:55;20.72;43.70
69503;SHT31;56704;54.242;12.442;2023-05-27T11:47:24;20.77;43.59
69503;SHT31;56704;54.242;12.442;2023-05-27T11:49:52;20.79;43.80
69503;SHT31;56704;54.242;12.442;2023-05-27T11:52:18;21.23;43.71
69503;SHT31;56704;54.242;12.442;2023-05-27T11:54:50;21.20;42.52
69503;SHT31;56704;54.242;12.442;2023-05-27T11:57:17;21.33;42.93
69503;SHT31;56704;54.242;12.442;2023-05-27T11:59:44;21.07;43.15
69503;SHT31;56704;54.242;12.442;2023-05-27T12:02:10;21.28;41.79
69503;SHT31;56704;54.242;12.442;2023-05-27T12:04:37;21.37;42.82
69503;SHT31;56704;54.242;12.442;2023-05-27T12:07:04;21.37;42.33
69503;SHT31;56704;54.242;12.442;2023-05-27T12:09:30;21.34;43.06
69503;SHT31;56704;54.242;12.442;2023-05-27T12:11:58;21.51;41.94
69503;SHT31;56704;54.242;12.442;2023-05-27T12:14:26;21.20;42.79
69503;SHT31;56704;54.242;12.442;2023-05-27T12:16:52;21.11;42.43
69503;SHT31;56704;54.242;12.442;2023-05-27T12:19:19;21.08;43.31
69503;SHT31;56704;54.242;12.442;2023-05-27T12:21:45;21.48;42.61
69503;SHT31;56704;54.242;12.442;2023-05-27T12:24:12;21.78;42.01
69503;SHT31;56704;54.242;12.442;2023-05-27T12:26:39;21.88;40.00
69503;SHT31;56704;54.242;12.442;2023-05-27T12:29:08;21.69;40.39
69503;SHT31;56704;54.242;12.442;2023-05-27T12:31:34;21.82;40.85
69503;SHT31;56704;54.242;12.442;2023-05-27T12:34:01;22.25;40.79
69503;SHT31;56704;54.242;12.442;2023-05-27T12:36:28;22.13;39.80
69503;SHT31;56704;54.242;12.442;2023-05-27T12:38:54;22.17;39.85
69503;SHT31;56704;54.242;12.442;2023-05-27T12:41:21;22.26;39.89
69503;SHT31;56704;54.242;12.442;2023-05-27T12:43:48;22.12;40.05
69503;SHT31;56704;54.242;12.442;2023-05-27T12:46:16;21.95;40.64
69503;SHT31;56704;54.242;12.442;2023-05-27T12:48:42;21.73;40.40
69503;SHT31;56704;54.242;12.442;2023-05-27T12:51:09;21.98;40.57
69503;SHT31;56704;54.242;12.442;2023-05-27T12:53:36;22.08;40.29
69503;SHT31;56704;54.242;12.442;2023-05-27T12:56:03;22.01;40.90
69503;SHT31;56704;54.242;12.442;2023-05-27T12:58:29;21.89;40.62
69503;SHT31;56704;54.242;12.442;2023-05-27T13:00:56;22.29;40.44
69503;SHT31;56704;54.242;12.442;2023-05-27T13:03:24;22.37;40.45
69503;SHT31;56704;54.242;12.442;2023-05-27T13:05:51;22.19;39.53
69503;SHT31;56704;54.242;12.442;2023-05-27T13:08:18;22.29;40.94
69503;SHT31;56704;54.242;12.442;2023-05-27T13:10:45;21.84;41.16
69503;SHT31;56704;54.242;12.442;2023-05-27T13:13:11;22.13;41.16
69503;SHT31;56704;54.242;12.442;2023-05-27T13:15:38;22.36;40.54
69503;SHT31;56704;54.242;12.442;2023-05-27T13:18:04;22.04;40.37
69503;SHT31;56704;54.242;12.442;2023-05-27T13:20:33;21.91;40.96
69503;SHT31;56704;54.242;12.442;2023-05-27T13:23:00;21.82;40.96
69503;SHT31;56704;54.242;12.442;2023-05-27T13:25:27;22.02;40.87
69503;SHT31;56704;54.242;12.442;2023-05-27T13:27:55;21.88;41.27
69503;SHT31;56704;54.242;12.442;2023-05-27T13:30:22;21.92;41.07
69503;SHT31;56704;54.242;12.442;2023-05-27T13:32:49;22.13;41.10
69503;SHT31;56704;54.242;12.442;2023-05-27T13:35:16;21.96;40.84
69503;SHT31;56704;54.242;12.442;2023-05-27T13:37:44;21.96;40.77
69503;SHT31;56704;54.242;12.442;2023-05-27T13:40:11;22.35;40.87
69503;SHT31;56704;54.242;12.442;2023-05-27T13:42:39;22.04;40.59
69503;SHT31;56704;54.242;12.442;2023-05-27T13:45:07;21.89;41.03
69503;SHT31;56704;54.242;12.442;2023-05-27T13:47:33;21.86;41.10
69503;SHT31;56704;54.242;12.442;2023-05-27T13:50:00;21.48;41.55
69503;SHT31;56704;54.242;12.442;2023-05-27T13:52:26;21.46;41.38
69503;SHT31;56704;54.242;12.442;2023-05-27T13:54:54;21.54;42.01
69503;SHT31;56704;54.242;12.442;2023-05-27T13:57:21;21.68;41.87
69503;SHT31;56704;54.242;12.442;2023-05-27T13:59:48;22.02;41.18
69503;SHT31;56704;54.242;12.442;2023-05-27T14:02:14;22.23;41.51
69503;SHT31;56704;54.242;12.442;2023-05-27T14:04:41;22.54;40.97
69503;SHT31;56704;54.242;12.442;2023-05-27T14:07:08;22.37;41.04
69503;SHT31;56704;54.242;12.442;2023-05-27T14:09:35;21.78;41.48
69503;SHT31;56704;54.242;12.442;2023-05-27T14:12:03;21.79;41.85
69503;SHT31;56704;54.242;12.442;2023-05-27T14:14:30;21.73;41.49
69503;SHT31;56704;54.242;12.442;2023-05-27T14:16:56;21.89;41.85
69503;SHT31;56704;54.242;12.442;2023-05-27T14:19:23;22.04;41.81
69503;SHT31;56704;54.242;12.442;2023-05-27T14:21:50;21.81;41.84
69503;SHT31;56704;54.242;12.442;2023-05-27T14:24:17;21.86;41.74
69503;SHT31;56704;54.242;12.442;2023-05-27T14:26:44;21.79;42.11
69503;SHT31;56704;54.242;12.442;2023-05-27T14:29:12;21.71;42.25
69503;SHT31;56704;54.242;12.442;2023-05-27T14:31:39;21.67;42.33
69503;SHT31;56704;54.242;12.442;2023-05-27T14:34:05;21.75;42.68
69503;SHT31;56704;54.242;12.442;2023-05-27T14:36:32;21.86;41.73
69503;SHT31;56704;54.242;12.442;2023-05-27T14:38:59;21.82;42.30
69503;SHT31;56704;54.242;12.442;2023-05-27T14:41:28;21.84;42.51
69503;SHT31;56704;54.242;12.442;2023-05-27T14:43:55;21.61;42.43
69503;SHT31;56704;54.242;12.442;2023-05-27T14:46:23;21.55;42.79
69503;SHT31;56704;54.242;12.442;2023-05-27T14:48:49;21.62;43.31
69503;SHT31;56704;54.242;12.442;2023-05-27T14:51:16;21.08;43.36
69503;SHT31;56704;54.242;12.442;2023-05-27T14:53:43;21.30;43.45
69503;SHT31;56704;54.242;12.442;2023-05-27T14:56:09;21.51;43.59
69503;SHT31;56704;54.242;12.442;2023-05-27T14:58:36;21.57;43.58
69503;SHT31;56704;54.242;12.442;2023-05-27T15:01:04;21.64;43.13
69503;SHT31;56704;54.242;12.442;2023-05-27T15:03:32;21.65;43.14
69503;SHT31;56704;54.242;12.442;2023-05-27T15:05:59;21.65;43.39
69503;SHT31;56704;54.242;12.442;2023-05-27T15:08:25;21.41;43.95
69503;SHT31;56704;54.242;12.442;2023-05-27T15:10:52;21.37;44.56
69503;SHT31;56704;54.242;12.442;2023-05-27T15:13:19;21.51;42.98
69503;SHT31;56704;54.242;12.442;2023-05-27T15:15:46;21.48;43.66
69503;SHT31;56704;54.242;12.442;2023-05-27T15:18:12;21.20;43.52
69503;SHT31;56704;54.242;12.442;2023-05-27T15:20:40;21.17;43.88